This is the latest recevied weather packets stored in our database for station/object K7GFH-13. If no packets are shown the sender has not sent any weather packets the latest 10 day(s).
| Time | Temp. | Humidity | Pressure | Rain* | Wind** | Luminosity | Snow |
|---|---|---|---|---|---|---|---|
| 1778282510 | 18.89° C | 47% | 1023.3 hPa | 0 mm | - | 490 W/m² | - |
| 1778281608 | 18.33° C | 48% | 1023.7 hPa | 0 mm | - | 524 W/m² | - |
| 1778280704 | 17.78° C | 47% | 1023.2 hPa | 0 mm | - | 556 W/m² | - |
| 1778279803 | 17.78° C | 50% | 1023.2 hPa | 0 mm | - | 584 W/m² | - |
| 1778278900 | 18.33° C | 44% | 1023.4 hPa | 0 mm | - | 611 W/m² | - |
| 1778277995 | 17.78° C | 46% | 1023.4 hPa | 0 mm | - | 638 W/m² | - |
| 1778277091 | 17.78° C | 47% | 1023.5 hPa | 0 mm | - | 658 W/m² | - |
| 1778276188 | 17.22° C | 51% | 1023.7 hPa | 0 mm | - | 677 W/m² | - |
| 1778275282 | 16.67° C | 50% | 1023.4 hPa | 0 mm | - | 688 W/m² | - |
| 1778274383 | 16.11° C | 53% | 1023.6 hPa | 0 mm | - | 712 W/m² | - |
| 1778273479 | 16.67° C | 53% | 1023.6 hPa | 0 mm | - | 721 W/m² | - |
| 1778272579 | 15.56° C | 54% | 1023.9 hPa | 0 mm | - | 731 W/m² | - |
| 1778271674 | 15.56° C | 54% | 1023.7 hPa | 0 mm | - | 599 W/m² | - |
| 1778270770 | 15.56° C | 56% | 1023.9 hPa | 0 mm | - | 737 W/m² | - |
| 1778269865 | 15° C | 57% | 1023.9 hPa | 0 mm | - | 764 W/m² | - |
| 1778268961 | 14.44° C | 61% | 1023.8 hPa | 0 mm | - | 866 W/m² | - |
| 1778268058 | 15° C | 59% | 1024.1 hPa | 0 mm | - | 351 W/m² | - |
| 1778267154 | 15° C | 60% | 1024 hPa | 0 mm | - | 345 W/m² | - |
| 1778266251 | 15° C | 60% | 1024.2 hPa | 0 mm | - | 812 W/m² | - |
| 1778265348 | 13.33° C | 65% | 1024.1 hPa | 0 mm | - | 231 W/m² | - |
| 1778264443 | 13.89° C | 64% | 1024 hPa | 0 mm | - | 349 W/m² | - |
| 1778263538 | 13.33° C | 65% | 1024 hPa | 0 mm | - | 339 W/m² | - |
| 1778262634 | 13.33° C | 66% | 1023.6 hPa | 0 mm | - | 327 W/m² | - |
| 1778261731 | 12.78° C | 65% | 1023.4 hPa | 0 mm | - | 622 W/m² | - |
| 1778260827 | 12.78° C | 67% | 1023.5 hPa | 0 mm | - | 239 W/m² | - |
* Rain latest hour (hover to see other rain measurements)
** Current wind speed in m/s (hover to see current wind gust speed)